sensor_id;sensor_type;location;lat;lon;timestamp;P1;durP1;ratioP1;P2;durP2;ratioP2
69795;SDS011;57073;45.650;9.612;2023-03-21T00:04:14;60.40;;;30.50;;
69795;SDS011;57073;45.650;9.612;2023-03-21T00:09:15;57.03;;;30.98;;
69795;SDS011;57073;45.650;9.612;2023-03-21T00:14:16;63.47;;;31.73;;
69795;SDS011;57073;45.650;9.612;2023-03-21T00:19:17;59.85;;;31.70;;
69795;SDS011;57073;45.650;9.612;2023-03-21T00:24:20;58.17;;;31.33;;
69795;SDS011;57073;45.650;9.612;2023-03-21T00:29:21;62.23;;;32.27;;
69795;SDS011;57073;45.650;9.612;2023-03-21T00:34:22;61.17;;;31.97;;
69795;SDS011;57073;45.650;9.612;2023-03-21T00:39:22;58.23;;;30.93;;
69795;SDS011;57073;45.650;9.612;2023-03-21T00:44:22;63.03;;;33.43;;
69795;SDS011;57073;45.650;9.612;2023-03-21T00:49:24;61.92;;;31.80;;
69795;SDS011;57073;45.650;9.612;2023-03-21T00:54:25;59.27;;;31.97;;
69795;SDS011;57073;45.650;9.612;2023-03-21T00:59:25;55.77;;;31.13;;
69795;SDS011;57073;45.650;9.612;2023-03-21T01:04:26;58.70;;;31.23;;
69795;SDS011;57073;45.650;9.612;2023-03-21T01:09:27;59.28;;;31.42;;
69795;SDS011;57073;45.650;9.612;2023-03-21T01:14:28;61.90;;;31.27;;
69795;SDS011;57073;45.650;9.612;2023-03-21T01:19:28;58.93;;;31.37;;
69795;SDS011;57073;45.650;9.612;2023-03-21T01:24:29;61.00;;;32.28;;
69795;SDS011;57073;45.650;9.612;2023-03-21T01:29:30;56.80;;;30.67;;
69795;SDS011;57073;45.650;9.612;2023-03-21T01:34:30;60.43;;;31.87;;
69795;SDS011;57073;45.650;9.612;2023-03-21T01:39:31;59.33;;;30.87;;
69795;SDS011;57073;45.650;9.612;2023-03-21T01:44:50;59.75;;;31.67;;
69795;SDS011;57073;45.650;9.612;2023-03-21T01:50:02;59.83;;;32.05;;
69795;SDS011;57073;45.650;9.612;2023-03-21T01:55:03;64.23;;;32.33;;
69795;SDS011;57073;45.650;9.612;2023-03-21T02:00:07;59.45;;;31.15;;
69795;SDS011;57073;45.650;9.612;2023-03-21T02:05:11;64.60;;;32.67;;
69795;SDS011;57073;45.650;9.612;2023-03-21T02:10:12;64.78;;;32.05;;
69795;SDS011;57073;45.650;9.612;2023-03-21T02:15:15;61.93;;;31.63;;
69795;SDS011;57073;45.650;9.612;2023-03-21T02:36:26;62.07;;;32.13;;
69795;SDS011;57073;45.650;9.612;2023-03-21T02:46:54;62.45;;;30.88;;
69795;SDS011;57073;45.650;9.612;2023-03-21T02:52:00;60.30;;;30.77;;
69795;SDS011;57073;45.650;9.612;2023-03-21T02:57:06;66.07;;;33.05;;
69795;SDS011;57073;45.650;9.612;2023-03-21T03:02:07;62.07;;;31.70;;
69795;SDS011;57073;45.650;9.612;2023-03-21T03:07:28;64.23;;;31.73;;
69795;SDS011;57073;45.650;9.612;2023-03-21T03:18:12;64.88;;;32.25;;
69795;SDS011;57073;45.650;9.612;2023-03-21T03:23:44;64.60;;;32.77;;
69795;SDS011;57073;45.650;9.612;2023-03-21T03:28:51;64.38;;;32.05;;
69795;SDS011;57073;45.650;9.612;2023-03-21T03:33:55;63.45;;;31.15;;
69795;SDS011;57073;45.650;9.612;2023-03-21T03:39:01;64.23;;;31.20;;
69795;SDS011;57073;45.650;9.612;2023-03-21T03:44:04;65.55;;;32.45;;
69795;SDS011;57073;45.650;9.612;2023-03-21T03:49:09;73.37;;;34.60;;
69795;SDS011;57073;45.650;9.612;2023-03-21T03:54:15;60.95;;;31.83;;
69795;SDS011;57073;45.650;9.612;2023-03-21T03:59:20;65.47;;;32.40;;
69795;SDS011;57073;45.650;9.612;2023-03-21T04:04:21;59.53;;;31.07;;
69795;SDS011;57073;45.650;9.612;2023-03-21T04:09:22;63.45;;;32.55;;
69795;SDS011;57073;45.650;9.612;2023-03-21T04:14:22;63.80;;;32.13;;
69795;SDS011;57073;45.650;9.612;2023-03-21T04:19:23;58.42;;;29.52;;
69795;SDS011;57073;45.650;9.612;2023-03-21T04:24:23;62.63;;;30.13;;
69795;SDS011;57073;45.650;9.612;2023-03-21T04:29:24;56.20;;;28.60;;
69795;SDS011;57073;45.650;9.612;2023-03-21T04:34:28;54.30;;;28.23;;
69795;SDS011;57073;45.650;9.612;2023-03-21T04:39:28;52.43;;;27.87;;
69795;SDS011;57073;45.650;9.612;2023-03-21T04:44:29;57.80;;;29.53;;
69795;SDS011;57073;45.650;9.612;2023-03-21T04:49:29;63.30;;;30.40;;
69795;SDS011;57073;45.650;9.612;2023-03-21T04:54:30;59.20;;;29.67;;
69795;SDS011;57073;45.650;9.612;2023-03-21T04:59:31;61.55;;;31.05;;
69795;SDS011;57073;45.650;9.612;2023-03-21T05:04:31;58.43;;;30.80;;
69795;SDS011;57073;45.650;9.612;2023-03-21T05:09:32;60.67;;;30.30;;
69795;SDS011;57073;45.650;9.612;2023-03-21T05:14:32;60.73;;;30.40;;
69795;SDS011;57073;45.650;9.612;2023-03-21T05:19:32;58.80;;;30.33;;
69795;SDS011;57073;45.650;9.612;2023-03-21T05:24:39;55.23;;;29.13;;
69795;SDS011;57073;45.650;9.612;2023-03-21T05:29:40;60.13;;;30.08;;
69795;SDS011;57073;45.650;9.612;2023-03-21T05:34:41;59.67;;;29.93;;
69795;SDS011;57073;45.650;9.612;2023-03-21T05:39:41;58.50;;;29.67;;
69795;SDS011;57073;45.650;9.612;2023-03-21T05:44:41;59.50;;;30.83;;
69795;SDS011;57073;45.650;9.612;2023-03-21T05:49:42;60.63;;;28.50;;
69795;SDS011;57073;45.650;9.612;2023-03-21T05:54:42;58.03;;;29.08;;
69795;SDS011;57073;45.650;9.612;2023-03-21T05:59:43;57.27;;;28.80;;
69795;SDS011;57073;45.650;9.612;2023-03-21T06:04:44;55.67;;;27.75;;
69795;SDS011;57073;45.650;9.612;2023-03-21T06:09:45;51.37;;;26.63;;
69795;SDS011;57073;45.650;9.612;2023-03-21T06:14:45;55.83;;;28.50;;
69795;SDS011;57073;45.650;9.612;2023-03-21T06:19:46;52.60;;;26.97;;
69795;SDS011;57073;45.650;9.612;2023-03-21T06:24:46;57.37;;;28.93;;
69795;SDS011;57073;45.650;9.612;2023-03-21T06:29:47;53.80;;;28.75;;
69795;SDS011;57073;45.650;9.612;2023-03-21T06:34:47;58.83;;;30.13;;
69795;SDS011;57073;45.650;9.612;2023-03-21T06:39:48;57.60;;;30.23;;
69795;SDS011;57073;45.650;9.612;2023-03-21T06:44:48;56.00;;;30.83;;
69795;SDS011;57073;45.650;9.612;2023-03-21T06:49:49;63.63;;;31.67;;
69795;SDS011;57073;45.650;9.612;2023-03-21T06:54:50;65.53;;;31.10;;
69795;SDS011;57073;45.650;9.612;2023-03-21T06:59:50;64.60;;;31.83;;
69795;SDS011;57073;45.650;9.612;2023-03-21T07:04:51;64.20;;;32.47;;
69795;SDS011;57073;45.650;9.612;2023-03-21T07:09:51;68.43;;;32.00;;
69795;SDS011;57073;45.650;9.612;2023-03-21T07:14:51;69.00;;;32.37;;
69795;SDS011;57073;45.650;9.612;2023-03-21T07:19:52;60.67;;;30.43;;
69795;SDS011;57073;45.650;9.612;2023-03-21T07:24:52;54.67;;;29.83;;
69795;SDS011;57073;45.650;9.612;2023-03-21T07:29:53;54.53;;;28.57;;
69795;SDS011;57073;45.650;9.612;2023-03-21T07:34:53;48.97;;;27.27;;
69795;SDS011;57073;45.650;9.612;2023-03-21T07:39:54;48.77;;;28.37;;
69795;SDS011;57073;45.650;9.612;2023-03-21T07:44:54;49.30;;;28.85;;
69795;SDS011;57073;45.650;9.612;2023-03-21T07:49:55;55.13;;;30.27;;
69795;SDS011;57073;45.650;9.612;2023-03-21T07:54:55;50.47;;;29.80;;
69795;SDS011;57073;45.650;9.612;2023-03-21T07:59:56;54.60;;;30.80;;
69795;SDS011;57073;45.650;9.612;2023-03-21T08:04:56;51.40;;;30.20;;
69795;SDS011;57073;45.650;9.612;2023-03-21T08:09:56;54.23;;;31.87;;
69795;SDS011;57073;45.650;9.612;2023-03-21T08:14:57;57.43;;;31.77;;
69795;SDS011;57073;45.650;9.612;2023-03-21T08:19:57;57.40;;;32.07;;
69795;SDS011;57073;45.650;9.612;2023-03-21T08:24:57;52.87;;;32.63;;
69795;SDS011;57073;45.650;9.612;2023-03-21T08:29:58;55.87;;;31.77;;
69795;SDS011;57073;45.650;9.612;2023-03-21T08:34:59;55.75;;;32.30;;
69795;SDS011;57073;45.650;9.612;2023-03-21T08:40:00;59.23;;;34.80;;
69795;SDS011;57073;45.650;9.612;2023-03-21T08:45:01;60.03;;;33.93;;
69795;SDS011;57073;45.650;9.612;2023-03-21T08:50:02;60.10;;;35.23;;
69795;SDS011;57073;45.650;9.612;2023-03-21T08:55:05;55.87;;;33.87;;
69795;SDS011;57073;45.650;9.612;2023-03-21T09:00:07;59.75;;;34.13;;
69795;SDS011;57073;45.650;9.612;2023-03-21T09:05:14;52.67;;;33.10;;
69795;SDS011;57073;45.650;9.612;2023-03-21T09:10:16;56.47;;;33.73;;
69795;SDS011;57073;45.650;9.612;2023-03-21T09:15:18;53.55;;;33.15;;
69795;SDS011;57073;45.650;9.612;2023-03-21T09:20:23;55.38;;;33.60;;
69795;SDS011;57073;45.650;9.612;2023-03-21T09:25:29;54.63;;;33.53;;
69795;SDS011;57073;45.650;9.612;2023-03-21T09:30:30;55.93;;;34.27;;
69795;SDS011;57073;45.650;9.612;2023-03-21T09:35:32;62.10;;;34.65;;
69795;SDS011;57073;45.650;9.612;2023-03-21T09:45:57;57.75;;;34.22;;
69795;SDS011;57073;45.650;9.612;2023-03-21T09:51:29;65.27;;;37.10;;
69795;SDS011;57073;45.650;9.612;2023-03-21T09:56:34;59.53;;;36.03;;
69795;SDS011;57073;45.650;9.612;2023-03-21T10:01:38;59.25;;;34.42;;
69795;SDS011;57073;45.650;9.612;2023-03-21T10:06:44;56.67;;;31.83;;
69795;SDS011;57073;45.650;9.612;2023-03-21T10:11:56;52.53;;;31.10;;
69795;SDS011;57073;45.650;9.612;2023-03-21T10:17:08;60.17;;;33.47;;
69795;SDS011;57073;45.650;9.612;2023-03-21T10:22:22;54.40;;;31.83;;
69795;SDS011;57073;45.650;9.612;2023-03-21T10:27:22;46.20;;;28.00;;
69795;SDS011;57073;45.650;9.612;2023-03-21T10:32:23;44.23;;;26.70;;
69795;SDS011;57073;45.650;9.612;2023-03-21T10:37:23;46.10;;;27.03;;
69795;SDS011;57073;45.650;9.612;2023-03-21T10:42:26;45.17;;;26.73;;
69795;SDS011;57073;45.650;9.612;2023-03-21T10:47:32;49.17;;;26.92;;
69795;SDS011;57073;45.650;9.612;2023-03-21T10:52:33;48.77;;;28.63;;
69795;SDS011;57073;45.650;9.612;2023-03-21T10:57:36;49.55;;;29.95;;
69795;SDS011;57073;45.650;9.612;2023-03-21T11:02:37;61.28;;;33.13;;
69795;SDS011;57073;45.650;9.612;2023-03-21T11:07:37;55.43;;;33.27;;
69795;SDS011;57073;45.650;9.612;2023-03-21T11:12:39;54.90;;;31.77;;
69795;SDS011;57073;45.650;9.612;2023-03-21T11:17:40;51.03;;;28.77;;
69795;SDS011;57073;45.650;9.612;2023-03-21T11:22:41;54.50;;;32.73;;
69795;SDS011;57073;45.650;9.612;2023-03-21T11:27:46;58.00;;;33.58;;
69795;SDS011;57073;45.650;9.612;2023-03-21T11:32:55;53.97;;;31.85;;
69795;SDS011;57073;45.650;9.612;2023-03-21T11:37:58;53.80;;;31.43;;
69795;SDS011;57073;45.650;9.612;2023-03-21T11:43:03;50.15;;;29.58;;
69795;SDS011;57073;45.650;9.612;2023-03-21T11:48:23;51.50;;;29.90;;
69795;SDS011;57073;45.650;9.612;2023-03-21T12:09:39;45.50;;;26.45;;
69795;SDS011;57073;45.650;9.612;2023-03-21T12:14:46;49.40;;;27.60;;
69795;SDS011;57073;45.650;9.612;2023-03-21T12:25:21;41.42;;;23.45;;
69795;SDS011;57073;45.650;9.612;2023-03-21T12:46:13;47.03;;;26.50;;
69795;SDS011;57073;45.650;9.612;2023-03-21T12:51:17;45.30;;;24.93;;
69795;SDS011;57073;45.650;9.612;2023-03-21T12:56:27;41.95;;;23.55;;
69795;SDS011;57073;45.650;9.612;2023-03-21T13:01:44;40.75;;;23.92;;
69795;SDS011;57073;45.650;9.612;2023-03-21T13:06:47;43.70;;;26.13;;
69795;SDS011;57073;45.650;9.612;2023-03-21T13:11:51;35.80;;;21.33;;
69795;SDS011;57073;45.650;9.612;2023-03-21T13:16:55;42.70;;;24.25;;
69795;SDS011;57073;45.650;9.612;2023-03-21T13:27:31;46.67;;;25.48;;
69795;SDS011;57073;45.650;9.612;2023-03-21T13:37:43;39.83;;;22.83;;
69795;SDS011;57073;45.650;9.612;2023-03-21T13:42:52;40.00;;;23.42;;
69795;SDS011;57073;45.650;9.612;2023-03-21T13:48:00;35.97;;;19.83;;
69795;SDS011;57073;45.650;9.612;2023-03-21T13:58:23;33.67;;;20.90;;
69795;SDS011;57073;45.650;9.612;2023-03-21T14:03:31;36.55;;;21.45;;
69795;SDS011;57073;45.650;9.612;2023-03-21T14:08:34;37.38;;;21.92;;
69795;SDS011;57073;45.650;9.612;2023-03-21T14:13:35;35.93;;;20.47;;
69795;SDS011;57073;45.650;9.612;2023-03-21T14:18:44;35.42;;;20.23;;
69795;SDS011;57073;45.650;9.612;2023-03-21T14:23:54;33.25;;;20.02;;
69795;SDS011;57073;45.650;9.612;2023-03-21T14:29:05;32.70;;;19.23;;
69795;SDS011;57073;45.650;9.612;2023-03-21T14:34:07;35.83;;;20.90;;
69795;SDS011;57073;45.650;9.612;2023-03-21T14:39:16;32.63;;;19.25;;
69795;SDS011;57073;45.650;9.612;2023-03-21T14:49:27;34.00;;;19.48;;
69795;SDS011;57073;45.650;9.612;2023-03-21T14:54:30;32.20;;;19.33;;
69795;SDS011;57073;45.650;9.612;2023-03-21T14:59:32;28.70;;;17.17;;
69795;SDS011;57073;45.650;9.612;2023-03-21T15:04:35;34.60;;;19.27;;
69795;SDS011;57073;45.650;9.612;2023-03-21T15:09:36;35.70;;;20.23;;
69795;SDS011;57073;45.650;9.612;2023-03-21T15:14:36;28.90;;;17.77;;
69795;SDS011;57073;45.650;9.612;2023-03-21T15:19:37;31.07;;;18.50;;
69795;SDS011;57073;45.650;9.612;2023-03-21T15:24:44;32.47;;;18.30;;
69795;SDS011;57073;45.650;9.612;2023-03-21T15:29:49;33.60;;;19.57;;
69795;SDS011;57073;45.650;9.612;2023-03-21T15:34:53;32.05;;;19.73;;
69795;SDS011;57073;45.650;9.612;2023-03-21T15:40:04;34.47;;;19.92;;
69795;SDS011;57073;45.650;9.612;2023-03-21T15:50:27;33.00;;;19.97;;
69795;SDS011;57073;45.650;9.612;2023-03-21T16:00:39;34.60;;;19.53;;
69795;SDS011;57073;45.650;9.612;2023-03-21T16:05:41;34.93;;;19.23;;
69795;SDS011;57073;45.650;9.612;2023-03-21T16:10:42;32.92;;;18.92;;
69795;SDS011;57073;45.650;9.612;2023-03-21T16:15:42;30.50;;;17.53;;
69795;SDS011;57073;45.650;9.612;2023-03-21T16:20:44;30.77;;;18.50;;
69795;SDS011;57073;45.650;9.612;2023-03-21T16:25:45;32.47;;;17.07;;
69795;SDS011;57073;45.650;9.612;2023-03-21T16:30:46;30.90;;;17.63;;
69795;SDS011;57073;45.650;9.612;2023-03-21T16:35:46;34.07;;;18.47;;
69795;SDS011;57073;45.650;9.612;2023-03-21T16:40:46;32.03;;;18.10;;
69795;SDS011;57073;45.650;9.612;2023-03-21T16:45:47;33.43;;;17.73;;
69795;SDS011;57073;45.650;9.612;2023-03-21T16:50:47;34.87;;;18.33;;
69795;SDS011;57073;45.650;9.612;2023-03-21T16:55:48;31.93;;;17.90;;
69795;SDS011;57073;45.650;9.612;2023-03-21T17:00:48;33.33;;;17.43;;
69795;SDS011;57073;45.650;9.612;2023-03-21T17:05:48;36.07;;;19.30;;
69795;SDS011;57073;45.650;9.612;2023-03-21T17:10:49;35.30;;;18.47;;
69795;SDS011;57073;45.650;9.612;2023-03-21T17:15:49;36.37;;;17.60;;
69795;SDS011;57073;45.650;9.612;2023-03-21T17:20:50;33.97;;;17.20;;
69795;SDS011;57073;45.650;9.612;2023-03-21T17:25:50;33.87;;;17.57;;
69795;SDS011;57073;45.650;9.612;2023-03-21T17:30:50;36.33;;;17.07;;
69795;SDS011;57073;45.650;9.612;2023-03-21T17:35:51;38.87;;;18.60;;
69795;SDS011;57073;45.650;9.612;2023-03-21T17:40:51;40.03;;;19.45;;
69795;SDS011;57073;45.650;9.612;2023-03-21T17:45:52;37.27;;;19.27;;
69795;SDS011;57073;45.650;9.612;2023-03-21T17:50:52;42.37;;;19.10;;
69795;SDS011;57073;45.650;9.612;2023-03-21T17:55:52;40.07;;;19.77;;
69795;SDS011;57073;45.650;9.612;2023-03-21T18:00:53;43.67;;;20.73;;
69795;SDS011;57073;45.650;9.612;2023-03-21T18:05:53;39.50;;;19.63;;
69795;SDS011;57073;45.650;9.612;2023-03-21T18:10:53;42.97;;;20.17;;
69795;SDS011;57073;45.650;9.612;2023-03-21T18:15:54;43.87;;;19.70;;
69795;SDS011;57073;45.650;9.612;2023-03-21T18:20:54;40.80;;;20.77;;
69795;SDS011;57073;45.650;9.612;2023-03-21T18:25:55;41.17;;;20.47;;
69795;SDS011;57073;45.650;9.612;2023-03-21T18:30:55;44.30;;;19.87;;
69795;SDS011;57073;45.650;9.612;2023-03-21T18:35:55;46.73;;;21.47;;
69795;SDS011;57073;45.650;9.612;2023-03-21T18:40:56;42.07;;;19.83;;
69795;SDS011;57073;45.650;9.612;2023-03-21T18:45:56;46.47;;;20.47;;
69795;SDS011;57073;45.650;9.612;2023-03-21T18:50:57;43.77;;;20.23;;
69795;SDS011;57073;45.650;9.612;2023-03-21T18:55:57;38.83;;;20.33;;
69795;SDS011;57073;45.650;9.612;2023-03-21T19:00:57;42.03;;;20.57;;
69795;SDS011;57073;45.650;9.612;2023-03-21T19:05:58;44.53;;;20.93;;
69795;SDS011;57073;45.650;9.612;2023-03-21T19:10:59;43.30;;;20.10;;
69795;SDS011;57073;45.650;9.612;2023-03-21T19:16:01;43.03;;;20.40;;
69795;SDS011;57073;45.650;9.612;2023-03-21T19:21:01;47.07;;;21.03;;
69795;SDS011;57073;45.650;9.612;2023-03-21T19:26:02;45.72;;;21.75;;
69795;SDS011;57073;45.650;9.612;2023-03-21T19:31:03;46.30;;;21.47;;
69795;SDS011;57073;45.650;9.612;2023-03-21T19:36:07;43.78;;;21.27;;
69795;SDS011;57073;45.650;9.612;2023-03-21T19:41:08;45.03;;;20.87;;
69795;SDS011;57073;45.650;9.612;2023-03-21T19:46:09;46.58;;;20.60;;
69795;SDS011;57073;45.650;9.612;2023-03-21T19:51:13;44.20;;;21.23;;
69795;SDS011;57073;45.650;9.612;2023-03-21T19:56:13;40.70;;;21.10;;
69795;SDS011;57073;45.650;9.612;2023-03-21T20:01:15;42.75;;;21.10;;
69795;SDS011;57073;45.650;9.612;2023-03-21T20:06:16;45.67;;;21.70;;
69795;SDS011;57073;45.650;9.612;2023-03-21T20:11:16;50.03;;;21.90;;
69795;SDS011;57073;45.650;9.612;2023-03-21T20:16:17;45.87;;;22.00;;
69795;SDS011;57073;45.650;9.612;2023-03-21T20:21:17;46.10;;;22.23;;
69795;SDS011;57073;45.650;9.612;2023-03-21T20:26:18;46.57;;;22.27;;
69795;SDS011;57073;45.650;9.612;2023-03-21T20:31:18;45.72;;;23.42;;
69795;SDS011;57073;45.650;9.612;2023-03-21T20:36:19;44.97;;;22.40;;
69795;SDS011;57073;45.650;9.612;2023-03-21T20:41:21;42.40;;;22.65;;
69795;SDS011;57073;45.650;9.612;2023-03-21T20:46:21;45.73;;;23.27;;
69795;SDS011;57073;45.650;9.612;2023-03-21T20:51:21;48.90;;;23.37;;
69795;SDS011;57073;45.650;9.612;2023-03-21T20:56:23;47.83;;;24.13;;
69795;SDS011;57073;45.650;9.612;2023-03-21T21:01:23;48.20;;;24.77;;
69795;SDS011;57073;45.650;9.612;2023-03-21T21:06:23;47.93;;;23.67;;
69795;SDS011;57073;45.650;9.612;2023-03-21T21:11:24;46.60;;;22.33;;
69795;SDS011;57073;45.650;9.612;2023-03-21T21:16:25;49.17;;;24.90;;
69795;SDS011;57073;45.650;9.612;2023-03-21T21:21:26;53.55;;;23.90;;
69795;SDS011;57073;45.650;9.612;2023-03-21T21:26:27;47.30;;;23.87;;
69795;SDS011;57073;45.650;9.612;2023-03-21T21:31:27;48.47;;;24.50;;
69795;SDS011;57073;45.650;9.612;2023-03-21T21:36:28;44.40;;;23.23;;
69795;SDS011;57073;45.650;9.612;2023-03-21T21:41:28;47.53;;;24.30;;
69795;SDS011;57073;45.650;9.612;2023-03-21T21:46:29;49.47;;;23.93;;
69795;SDS011;57073;45.650;9.612;2023-03-21T21:51:30;43.80;;;23.23;;
69795;SDS011;57073;45.650;9.612;2023-03-21T21:56:33;47.47;;;24.02;;
69795;SDS011;57073;45.650;9.612;2023-03-21T22:01:36;49.20;;;23.30;;
69795;SDS011;57073;45.650;9.612;2023-03-21T22:06:37;44.08;;;23.15;;
69795;SDS011;57073;45.650;9.612;2023-03-21T22:11:37;50.00;;;23.87;;
69795;SDS011;57073;45.650;9.612;2023-03-21T22:16:38;48.33;;;24.17;;
69795;SDS011;57073;45.650;9.612;2023-03-21T22:21:38;48.33;;;23.50;;
69795;SDS011;57073;45.650;9.612;2023-03-21T22:26:39;45.43;;;22.73;;
69795;SDS011;57073;45.650;9.612;2023-03-21T22:31:39;45.57;;;23.07;;
69795;SDS011;57073;45.650;9.612;2023-03-21T22:36:40;47.07;;;23.90;;
69795;SDS011;57073;45.650;9.612;2023-03-21T22:41:45;46.70;;;23.40;;
69795;SDS011;57073;45.650;9.612;2023-03-21T22:46:46;44.43;;;23.80;;
69795;SDS011;57073;45.650;9.612;2023-03-21T22:51:46;47.33;;;23.70;;
69795;SDS011;57073;45.650;9.612;2023-03-21T22:56:47;52.00;;;24.10;;
69795;SDS011;57073;45.650;9.612;2023-03-21T23:01:47;49.23;;;24.47;;
69795;SDS011;57073;45.650;9.612;2023-03-21T23:06:48;47.65;;;24.55;;
69795;SDS011;57073;45.650;9.612;2023-03-21T23:11:48;48.60;;;24.33;;
69795;SDS011;57073;45.650;9.612;2023-03-21T23:16:49;48.90;;;24.67;;
69795;SDS011;57073;45.650;9.612;2023-03-21T23:21:52;47.28;;;24.65;;
69795;SDS011;57073;45.650;9.612;2023-03-21T23:26:52;45.63;;;24.67;;
69795;SDS011;57073;45.650;9.612;2023-03-21T23:31:52;50.67;;;26.17;;
69795;SDS011;57073;45.650;9.612;2023-03-21T23:36:53;53.13;;;25.63;;
69795;SDS011;57073;45.650;9.612;2023-03-21T23:41:53;48.13;;;24.83;;
69795;SDS011;57073;45.650;9.612;2023-03-21T23:46:54;48.60;;;26.03;;
69795;SDS011;57073;45.650;9.612;2023-03-21T23:51:54;51.50;;;25.70;;
69795;SDS011;57073;45.650;9.612;2023-03-21T23:56:55;47.47;;;24.60;;
